createdAt,value
2018-04-08T00:00:11.281Z,11.40
2018-04-08T00:02:38.638Z,11.60
2018-04-08T00:05:06.040Z,11.70
2018-04-08T00:07:33.465Z,12.20
2018-04-08T00:10:00.861Z,11.30
2018-04-08T00:12:28.229Z,9.70
2018-04-08T00:14:55.628Z,10.00
2018-04-08T00:17:23.014Z,10.60
2018-04-08T00:19:50.365Z,9.83
2018-04-08T00:22:17.788Z,10.30
2018-04-08T00:24:45.152Z,10.00
2018-04-08T00:27:12.555Z,9.70
2018-04-08T00:29:39.909Z,10.30
2018-04-08T00:32:07.297Z,9.80
2018-04-08T00:34:34.658Z,9.30
2018-04-08T00:37:02.053Z,10.10
2018-04-08T00:39:29.406Z,9.50
2018-04-08T00:41:56.760Z,9.50
2018-04-08T00:44:24.166Z,9.40
2018-04-08T00:46:51.520Z,9.97
2018-04-08T00:49:18.877Z,9.60
2018-04-08T00:51:47.166Z,10.20
2018-04-08T00:54:20.509Z,10.00
2018-04-08T00:56:47.893Z,9.70
2018-04-08T00:59:15.241Z,8.80
2018-04-08T01:01:42.630Z,9.20
2018-04-08T01:04:09.985Z,9.37
2018-04-08T01:06:37.366Z,9.70
2018-04-08T01:09:05.650Z,8.53
2018-04-08T01:11:33.038Z,9.00
2018-04-08T01:14:01.181Z,9.43
2018-04-08T01:16:28.574Z,9.30
2018-04-08T01:18:55.931Z,8.57
2018-04-08T01:21:23.324Z,9.90
2018-04-08T01:23:50.690Z,9.27
2018-04-08T01:26:18.051Z,9.90
2018-04-08T01:28:45.521Z,8.70
2018-04-08T01:31:12.873Z,8.93
2018-04-08T01:33:40.237Z,9.50
2018-04-08T01:36:07.622Z,9.00
2018-04-08T01:38:35.125Z,9.17
2018-04-08T01:41:02.529Z,9.03
2018-04-08T01:43:29.974Z,9.13
2018-04-08T01:45:57.341Z,9.10
2018-04-08T01:48:24.774Z,9.20
2018-04-08T01:50:52.125Z,8.23
2018-04-08T01:53:19.472Z,9.53
2018-04-08T01:55:46.849Z,8.80
2018-04-08T01:58:14.215Z,8.70
2018-04-08T02:00:41.565Z,8.50
2018-04-08T02:03:08.978Z,8.57
2018-04-08T02:05:36.334Z,8.63
2018-04-08T02:08:03.682Z,8.87
2018-04-08T02:10:31.072Z,8.20
2018-04-08T02:12:58.442Z,8.10
2018-04-08T02:15:25.796Z,7.80
2018-04-08T02:17:53.195Z,7.80
2018-04-08T02:20:20.555Z,8.40
2018-04-08T02:22:47.913Z,8.50
2018-04-08T02:25:15.296Z,8.87
2018-04-08T02:27:42.653Z,7.87
2018-04-08T02:30:10.009Z,9.30
2018-04-08T02:32:37.386Z,8.70
2018-04-08T02:35:04.813Z,8.40
2018-04-08T02:37:32.186Z,7.87
2018-04-08T02:39:59.569Z,8.83
2018-04-08T02:42:26.920Z,8.00
2018-04-08T02:44:54.310Z,8.50
2018-04-08T02:47:21.690Z,8.37
2018-04-08T02:49:49.044Z,8.47
2018-04-08T02:52:16.427Z,8.47
2018-04-08T02:54:43.777Z,9.20
2018-04-08T02:57:11.162Z,8.27
2018-04-08T02:59:38.513Z,9.73
2018-04-08T03:02:05.883Z,8.37
2018-04-08T03:04:33.267Z,9.70
2018-04-08T03:07:00.618Z,9.00
2018-04-08T03:09:28.014Z,9.40
2018-04-08T03:11:55.371Z,9.83
2018-04-08T03:14:22.734Z,10.03
2018-04-08T03:16:50.134Z,9.43
2018-04-08T03:19:17.490Z,9.63
2018-04-08T03:21:44.844Z,9.93
2018-04-08T03:24:12.236Z,9.30
2018-04-08T03:26:39.596Z,9.07
2018-04-08T03:29:06.961Z,10.17
2018-04-08T03:31:34.351Z,9.70
2018-04-08T03:34:01.706Z,8.27
2018-04-08T03:36:29.057Z,10.00
2018-04-08T03:38:56.440Z,10.07
2018-04-08T03:41:23.817Z,9.00
2018-04-08T03:43:51.325Z,9.93
2018-04-08T03:46:18.721Z,9.90
2018-04-08T03:48:46.075Z,9.20
2018-04-08T03:51:13.434Z,9.63
2018-04-08T03:53:40.825Z,9.70
2018-04-08T03:56:08.177Z,9.30
2018-04-08T03:58:35.525Z,9.97
2018-04-08T04:01:02.897Z,10.27
2018-04-08T04:03:30.252Z,10.70
2018-04-08T04:05:57.633Z,10.30
2018-04-08T04:08:24.989Z,10.67
2018-04-08T04:10:52.373Z,10.47
2018-04-08T04:13:19.729Z,9.70
2018-04-08T04:15:47.120Z,9.90
2018-04-08T04:18:20.458Z,10.00
2018-04-08T04:20:53.771Z,10.50
2018-04-08T04:23:27.185Z,10.17
2018-04-08T04:25:58.177Z,10.43
2018-04-08T04:28:25.533Z,10.47
2018-04-08T04:30:52.885Z,10.23
2018-04-08T04:33:20.275Z,9.90
2018-04-08T04:35:47.629Z,10.00
2018-04-08T04:38:14.994Z,10.00
2018-04-08T04:40:42.380Z,10.50
2018-04-08T04:43:09.741Z,10.40
2018-04-08T04:45:37.157Z,10.00
2018-04-08T04:48:04.524Z,10.57
2018-04-08T04:50:31.897Z,10.53
2018-04-08T04:52:59.311Z,11.17
2018-04-08T04:55:26.669Z,10.70
2018-04-08T04:57:54.039Z,10.77
2018-04-08T05:00:23.497Z,10.23
2018-04-08T05:02:50.901Z,10.90
2018-04-08T05:05:18.298Z,10.90
2018-04-08T05:07:45.697Z,10.57
2018-04-08T05:10:13.058Z,10.77
2018-04-08T05:12:40.419Z,9.47
2018-04-08T05:15:07.806Z,10.03
2018-04-08T05:17:35.174Z,10.93
2018-04-08T05:20:02.671Z,10.60
2018-04-08T05:22:30.028Z,10.73
2018-04-08T05:24:57.393Z,10.57
2018-04-08T05:27:24.769Z,10.70
2018-04-08T05:29:52.128Z,10.43
2018-04-08T05:32:19.522Z,11.00
2018-04-08T05:34:46.885Z,10.47
2018-04-08T05:37:14.241Z,10.50
2018-04-08T05:39:41.634Z,10.90
2018-04-08T05:42:09.796Z,10.90
2018-04-08T05:44:37.159Z,11.03
2018-04-08T05:47:04.548Z,10.80
2018-04-08T05:49:31.913Z,10.70
2018-04-08T05:51:59.269Z,10.80
2018-04-08T05:54:26.672Z,10.60
2018-04-08T05:56:54.073Z,10.80
2018-04-08T05:59:21.429Z,10.43
2018-04-08T06:01:48.783Z,10.30
2018-04-08T06:04:16.178Z,10.07
2018-04-08T06:06:43.536Z,10.50
2018-04-08T06:09:10.894Z,11.07
2018-04-08T06:11:38.281Z,10.37
2018-04-08T06:14:05.661Z,10.73
2018-04-08T06:16:33.031Z,10.30
2018-04-08T06:19:00.564Z,10.50
2018-04-08T06:21:27.921Z,10.60
2018-04-08T06:23:55.314Z,10.30
2018-04-08T06:26:22.664Z,9.83
2018-04-08T06:28:50.405Z,9.97
2018-04-08T06:31:17.835Z,10.23
2018-04-08T06:33:45.199Z,10.50
2018-04-08T06:36:12.557Z,10.00
2018-04-08T06:38:39.973Z,10.83
2018-04-08T06:41:07.332Z,10.03
2018-04-08T06:43:34.743Z,10.07
2018-04-08T06:46:02.120Z,11.30
2018-04-08T06:48:29.523Z,10.20
2018-04-08T06:50:56.887Z,10.07
2018-04-08T06:53:24.273Z,10.07
2018-04-08T06:55:51.625Z,10.20
2018-04-08T06:58:18.992Z,10.70
2018-04-08T07:00:46.382Z,10.77
2018-04-08T07:03:13.788Z,11.33
2018-04-08T07:05:41.136Z,12.17
2018-04-08T07:08:08.488Z,10.90
2018-04-08T07:10:35.898Z,10.43
2018-04-08T07:13:04.124Z,9.90
2018-04-08T07:15:31.688Z,10.00
2018-04-08T07:17:59.084Z,10.27
2018-04-08T07:20:26.588Z,10.90
2018-04-08T07:22:54.022Z,10.47
2018-04-08T07:25:21.450Z,11.73
2018-04-08T07:27:48.835Z,10.67
2018-04-08T07:30:16.229Z,11.60
2018-04-08T07:32:43.600Z,10.70
2018-04-08T07:35:10.976Z,10.30
2018-04-08T07:37:38.377Z,10.17
2018-04-08T07:40:05.821Z,10.43
2018-04-08T07:42:33.272Z,10.90
2018-04-08T07:45:00.976Z,10.80
2018-04-08T07:47:28.382Z,11.30
2018-04-08T07:49:56.009Z,10.60
2018-04-08T07:52:23.378Z,10.67
2018-04-08T07:54:50.793Z,10.30
2018-04-08T07:57:18.225Z,10.80
2018-04-08T07:59:45.615Z,11.60
2018-04-08T08:02:13.138Z,10.67
2018-04-08T08:04:40.659Z,10.70
2018-04-08T08:07:08.012Z,10.80
2018-04-08T08:09:35.409Z,10.60
2018-04-08T08:12:02.780Z,10.80
2018-04-08T08:14:30.157Z,10.70
2018-04-08T08:16:57.575Z,10.77
2018-04-08T08:19:25.088Z,10.87
2018-04-08T08:21:52.458Z,10.70
2018-04-08T08:24:19.928Z,10.40
2018-04-08T08:26:47.389Z,10.63
2018-04-08T08:29:14.817Z,11.13
2018-04-08T08:31:42.177Z,10.87
2018-04-08T08:34:09.590Z,11.13
2018-04-08T08:36:37.138Z,10.43
2018-04-08T08:39:05.573Z,10.43
2018-04-08T08:41:32.981Z,10.60
2018-04-08T08:44:00.408Z,10.83
2018-04-08T08:46:27.808Z,10.77
2018-04-08T08:48:55.272Z,9.90
2018-04-08T08:51:22.629Z,10.30
2018-04-08T08:53:50.145Z,10.17
2018-04-08T08:56:17.561Z,11.33
2018-04-08T08:58:44.959Z,10.70
2018-04-08T09:01:12.369Z,10.77
2018-04-08T09:03:39.729Z,10.50
2018-04-08T09:06:07.137Z,10.10
2018-04-08T09:08:34.584Z,11.10
2018-04-08T09:11:01.966Z,9.47
2018-04-08T09:13:29.361Z,9.90
2018-04-08T09:15:56.986Z,10.07
2018-04-08T09:18:24.336Z,9.80
2018-04-08T09:20:56.756Z,10.03
2018-04-08T09:23:28.946Z,9.77
2018-04-08T09:25:59.346Z,10.00
2018-04-08T09:28:27.051Z,9.70
2018-04-08T09:30:54.413Z,9.10
2018-04-08T09:33:21.973Z,9.70
2018-04-08T09:35:49.382Z,9.30
2018-04-08T09:38:16.738Z,10.10
2018-04-08T09:40:44.277Z,9.57
2018-04-08T09:43:11.634Z,9.50
2018-04-08T09:45:39.014Z,9.60
2018-04-08T09:48:06.405Z,8.83
2018-04-08T09:50:33.754Z,9.40
2018-04-08T09:53:01.149Z,9.47
2018-04-08T09:55:28.665Z,9.87
2018-04-08T09:57:56.753Z,8.93
2018-04-08T10:00:40.881Z,9.20
2018-04-08T10:03:08.789Z,9.10
2018-04-08T10:05:36.288Z,9.57
2018-04-08T10:08:03.618Z,10.50
2018-04-08T10:10:31.129Z,10.20
2018-04-08T10:12:58.518Z,9.80
2018-04-08T10:15:25.977Z,8.67
2018-04-08T10:17:53.468Z,9.60
2018-04-08T10:20:20.865Z,9.10
2018-04-08T10:22:48.297Z,9.30
2018-04-08T10:25:15.813Z,9.70
2018-04-08T10:27:43.161Z,9.43
2018-04-08T10:30:10.661Z,9.40
2018-04-08T10:32:38.127Z,9.50
2018-04-08T10:35:05.482Z,8.87
2018-04-08T10:37:33.034Z,8.50
2018-04-08T10:40:00.405Z,8.80
2018-04-08T10:42:27.757Z,8.23
2018-04-08T10:44:55.221Z,8.37
2018-04-08T10:47:22.693Z,8.63
2018-04-08T10:49:50.042Z,8.37
2018-04-08T10:52:17.430Z,9.10
2018-04-08T10:54:48.122Z,8.70
2018-04-08T10:57:15.485Z,8.83
2018-04-08T10:59:43.013Z,8.30
2018-04-08T11:02:10.713Z,8.93
2018-04-08T11:04:38.123Z,8.13
2018-04-08T11:07:05.603Z,8.50
2018-04-08T11:09:32.954Z,8.60
2018-04-08T11:12:00.429Z,9.00
2018-04-08T11:14:27.816Z,8.90
2018-04-08T11:16:55.220Z,9.13
2018-04-08T11:19:22.564Z,8.03
2018-04-08T11:21:49.958Z,8.80
2018-04-08T11:24:17.349Z,8.80
2018-04-08T11:26:44.705Z,8.77
2018-04-08T11:29:12.196Z,9.10
2018-04-08T11:31:39.610Z,8.97
2018-04-08T11:34:07.292Z,9.23
2018-04-08T11:36:34.774Z,8.90
2018-04-08T11:39:02.229Z,9.00
2018-04-08T11:41:29.631Z,7.90
2018-04-08T11:43:57.266Z,8.70
2018-04-08T11:46:24.736Z,8.23
2018-04-08T11:48:52.281Z,8.67
2018-04-08T11:51:19.658Z,9.13
2018-04-08T11:53:47.136Z,8.63
2018-04-08T11:56:14.618Z,8.53
2018-04-08T11:58:42.121Z,7.83
2018-04-08T12:01:09.482Z,8.80
2018-04-08T12:03:36.997Z,8.73
2018-04-08T12:06:07.642Z,8.60
2018-04-08T12:08:35.037Z,8.53
2018-04-08T12:11:02.426Z,8.40
2018-04-08T12:13:29.868Z,8.20
2018-04-08T12:15:57.225Z,8.27
2018-04-08T12:18:24.592Z,9.20
2018-04-08T12:20:51.953Z,8.13
2018-04-08T12:23:19.347Z,8.50
2018-04-08T12:25:46.698Z,7.40
2018-04-08T12:28:14.044Z,8.60
2018-04-08T12:30:41.586Z,8.73
2018-04-08T12:33:09.121Z,8.87
2018-04-08T12:35:36.549Z,8.17
2018-04-08T12:38:03.978Z,8.60
2018-04-08T12:40:31.413Z,8.20
2018-04-08T12:42:58.819Z,7.80
2018-04-08T12:45:26.193Z,8.40
2018-04-08T12:47:53.982Z,8.47
2018-04-08T12:50:21.335Z,8.40
2018-04-08T12:52:48.745Z,8.43
2018-04-08T12:55:16.093Z,8.23
2018-04-08T12:57:43.520Z,8.70
2018-04-08T13:00:10.894Z,8.90
2018-04-08T13:02:38.521Z,9.17
2018-04-08T13:05:05.914Z,7.90
2018-04-08T13:07:33.310Z,9.03
2018-04-08T13:10:00.906Z,9.43
2018-04-08T13:12:28.468Z,9.00
2018-04-08T13:14:55.842Z,9.20
2018-04-08T13:17:23.570Z,12.53
2018-04-08T13:19:50.917Z,8.70
2018-04-08T13:22:18.276Z,9.37
2018-04-08T13:24:45.669Z,8.60
2018-04-08T13:27:13.038Z,12.60
2018-04-08T13:29:40.423Z,8.70
2018-04-08T13:32:07.937Z,9.20
2018-04-08T13:34:35.363Z,8.87
2018-04-08T13:37:02.784Z,8.47
2018-04-08T13:39:30.131Z,8.17
2018-04-08T13:41:57.730Z,8.30
2018-04-08T13:44:25.156Z,8.40
2018-04-08T13:46:52.523Z,8.13
2018-04-08T13:49:19.875Z,8.40
2018-04-08T13:51:47.381Z,7.80
2018-04-08T13:54:14.727Z,8.00
2018-04-08T13:56:42.077Z,8.20
2018-04-08T13:59:09.821Z,8.03
2018-04-08T14:01:37.197Z,7.80
2018-04-08T14:04:04.549Z,7.67
2018-04-08T14:06:31.912Z,7.10
2018-04-08T14:08:59.472Z,8.47
2018-04-08T14:11:26.997Z,8.60
2018-04-08T14:13:54.729Z,8.87
2018-04-08T14:16:22.250Z,9.03
2018-04-08T14:18:49.721Z,9.07
2018-04-08T14:21:17.451Z,9.00
2018-04-08T14:23:45.061Z,9.90
2018-04-08T14:26:12.592Z,10.30
2018-04-08T14:28:40.096Z,10.30
2018-04-08T14:31:07.498Z,10.13
2018-04-08T14:33:34.889Z,9.47
2018-04-08T14:36:02.361Z,11.07
2018-04-08T14:38:29.768Z,10.80
2018-04-08T14:40:57.444Z,11.10
2018-04-08T14:43:24.791Z,10.60
2018-04-08T14:45:52.238Z,10.83
2018-04-08T14:48:19.657Z,10.87
2018-04-08T14:50:47.404Z,10.50
2018-04-08T14:53:14.863Z,11.47
2018-04-08T14:55:42.216Z,10.80
2018-04-08T14:58:09.771Z,9.80
2018-04-08T15:00:37.128Z,11.40
2018-04-08T15:03:04.553Z,11.07
2018-04-08T15:05:31.950Z,10.97
2018-04-08T15:07:59.310Z,11.00
2018-04-08T15:10:26.668Z,10.37
2018-04-08T15:12:54.091Z,11.80
2018-04-08T15:15:21.544Z,12.37
2018-04-08T15:17:49.066Z,11.93
2018-04-08T15:20:16.759Z,12.30
2018-04-08T15:22:44.185Z,12.53
2018-04-08T15:25:11.547Z,11.83
2018-04-08T15:27:39.101Z,11.43
2018-04-08T15:30:10.206Z,11.00
2018-04-08T15:32:37.806Z,11.40
2018-04-08T15:35:05.266Z,12.73
2018-04-08T15:37:33.596Z,11.90
2018-04-08T15:40:01.029Z,11.47
2018-04-08T15:42:28.513Z,12.07
2018-04-08T15:44:55.881Z,12.33
2018-04-08T15:47:23.330Z,11.13
2018-04-08T15:49:50.721Z,11.80
2018-04-08T15:52:18.132Z,12.13
2018-04-08T15:54:45.493Z,13.30
2018-04-08T15:57:12.897Z,11.87
2018-04-08T15:59:40.265Z,11.33
2018-04-08T16:02:07.621Z,11.53
2018-04-08T16:04:35.156Z,12.23
2018-04-08T16:07:02.513Z,12.40
2018-04-08T16:09:29.876Z,12.23
2018-04-08T16:11:57.454Z,13.13
2018-04-08T16:14:24.901Z,11.83
2018-04-08T16:16:52.312Z,13.17
2018-04-08T16:19:19.762Z,12.83
2018-04-08T16:21:47.320Z,13.43
2018-04-08T16:24:15.342Z,12.87
2018-04-08T16:26:43.005Z,14.50
2018-04-08T16:29:10.477Z,14.93
2018-04-08T16:31:38.114Z,15.43
2018-04-08T16:34:05.516Z,15.60
2018-04-08T16:36:32.889Z,15.53
2018-04-08T16:39:00.249Z,14.80
2018-04-08T16:41:27.680Z,15.00
2018-04-08T16:43:55.038Z,15.30
2018-04-08T16:46:22.504Z,15.47
2018-04-08T16:48:50.314Z,14.83
2018-04-08T16:51:17.867Z,16.17
2018-04-08T16:53:45.398Z,15.17
2018-04-08T16:56:12.900Z,17.00
2018-04-08T16:58:40.361Z,16.00
2018-04-08T17:01:07.782Z,15.93
2018-04-08T17:03:35.145Z,16.00
2018-04-08T17:06:02.585Z,16.50
2018-04-08T17:08:29.989Z,17.70
2018-04-08T17:10:57.405Z,18.47
2018-04-08T17:13:24.774Z,17.50
2018-04-08T17:15:52.197Z,20.10
2018-04-08T17:18:19.605Z,18.80
2018-04-08T17:20:46.957Z,16.93
2018-04-08T17:23:14.340Z,17.10
2018-04-08T17:25:41.735Z,17.50
2018-04-08T17:28:09.116Z,17.70
2018-04-08T17:30:36.710Z,16.77
2018-04-08T17:33:04.239Z,17.30
2018-04-08T17:35:31.655Z,16.73
2018-04-08T17:37:59.231Z,17.80
2018-04-08T17:40:26.595Z,17.60
2018-04-08T17:42:54.214Z,17.93
2018-04-08T17:45:21.842Z,18.33
2018-04-08T17:47:49.272Z,18.23
2018-04-08T17:50:16.630Z,17.93
2018-04-08T17:52:44.052Z,18.37
2018-04-08T17:55:11.414Z,18.53
2018-04-08T17:57:38.820Z,18.73
2018-04-08T18:00:06.205Z,17.70
2018-04-08T18:02:33.578Z,17.50
2018-04-08T18:05:00.945Z,17.57
2018-04-08T18:07:28.366Z,17.97
2018-04-08T18:09:55.719Z,17.87
2018-04-08T18:12:23.212Z,18.07
2018-04-08T18:14:50.823Z,18.37
2018-04-08T18:17:18.353Z,19.70
2018-04-08T18:19:45.763Z,17.70
2018-04-08T18:22:13.121Z,18.00
2018-04-08T18:24:40.482Z,19.73
2018-04-08T18:27:07.879Z,18.20
2018-04-08T18:29:35.242Z,17.50
2018-04-08T18:32:02.654Z,18.17
2018-04-08T18:34:30.046Z,18.50
2018-04-08T18:36:57.415Z,18.53
2018-04-08T18:39:24.769Z,20.23
2018-04-08T18:41:52.345Z,20.07
2018-04-08T18:44:19.729Z,19.80
2018-04-08T18:46:47.085Z,18.90
2018-04-08T18:49:14.577Z,19.57
2018-04-08T18:51:41.934Z,19.67
2018-04-08T18:54:09.387Z,20.13
2018-04-08T18:56:36.799Z,20.30
2018-04-08T18:59:04.168Z,19.97
2018-04-08T19:01:31.596Z,22.10
2018-04-08T19:03:59.148Z,21.33
2018-04-08T19:06:26.979Z,22.27
2018-04-08T19:08:54.340Z,21.80
2018-04-08T19:11:21.858Z,23.03
2018-04-08T19:13:49.257Z,23.53
2018-04-08T19:16:16.683Z,20.80
2018-04-08T19:18:44.089Z,20.37
2018-04-08T19:21:12.349Z,20.73
2018-04-08T19:23:39.725Z,20.83
2018-04-08T19:26:07.138Z,20.50
2018-04-08T19:28:34.625Z,21.50
2018-04-08T19:31:01.981Z,20.67
2018-04-08T19:33:29.824Z,20.03
2018-04-08T19:35:57.226Z,20.30
2018-04-08T19:38:24.641Z,20.57
2018-04-08T19:40:52.001Z,20.33
2018-04-08T19:43:19.356Z,21.33
2018-04-08T19:45:46.794Z,20.70
2018-04-08T19:48:14.181Z,20.80
2018-04-08T19:50:41.550Z,21.20
2018-04-08T19:53:08.943Z,21.40
2018-04-08T19:55:36.305Z,20.17
2018-04-08T19:58:03.797Z,20.30
2018-04-08T20:00:31.246Z,21.53
2018-04-08T20:02:58.699Z,21.30
2018-04-08T20:05:26.272Z,23.10
2018-04-08T20:07:53.800Z,23.40
2018-04-08T20:10:21.289Z,23.50
2018-04-08T20:12:48.678Z,22.83
2018-04-08T20:15:16.269Z,23.13
2018-04-08T20:17:43.621Z,22.83
2018-04-08T20:20:10.999Z,25.80
2018-04-08T20:22:38.656Z,25.63
2018-04-08T20:25:06.017Z,22.90
2018-04-08T20:27:33.391Z,25.50
2018-04-08T20:30:00.815Z,26.27
2018-04-08T20:32:28.297Z,25.57
2018-04-08T20:34:55.681Z,25.70
2018-04-08T20:37:23.177Z,23.40
2018-04-08T20:39:50.534Z,26.30
2018-04-08T20:42:17.910Z,29.00
2018-04-08T20:44:45.335Z,34.37
2018-04-08T20:47:12.893Z,37.30
2018-04-08T20:49:40.645Z,34.63
2018-04-08T20:52:08.433Z,34.57
2018-04-08T20:54:35.857Z,34.53
2018-04-08T20:57:03.217Z,34.40
2018-04-08T20:59:30.708Z,32.23
2018-04-08T21:01:58.093Z,33.43
2018-04-08T21:04:25.451Z,34.23
2018-04-08T21:06:53.057Z,33.27
2018-04-08T21:09:20.583Z,34.13
2018-04-08T21:11:47.937Z,32.80
2018-04-08T21:14:15.475Z,32.37
2018-04-08T21:16:42.865Z,34.80
2018-04-08T21:19:10.571Z,33.27
2018-04-08T21:21:37.948Z,33.20
2018-04-08T21:24:05.305Z,32.80
2018-04-08T21:26:32.710Z,32.37
2018-04-08T21:29:00.122Z,34.73
2018-04-08T21:31:27.549Z,35.97
2018-04-08T21:33:55.029Z,34.07
2018-04-08T21:36:22.417Z,34.47
2018-04-08T21:38:49.780Z,34.97
2018-04-08T21:41:17.137Z,31.60
2018-04-08T21:43:44.527Z,35.63
2018-04-08T21:46:11.934Z,32.37
2018-04-08T21:48:39.295Z,29.43
2018-04-08T21:51:06.649Z,30.10
2018-04-08T21:53:34.054Z,30.40
2018-04-08T21:56:01.418Z,32.40
2018-04-08T21:58:28.770Z,30.30
2018-04-08T22:00:56.164Z,31.63
2018-04-08T22:03:23.529Z,28.63
2018-04-08T22:05:50.952Z,27.37
2018-04-08T22:08:18.362Z,28.27
2018-04-08T22:10:45.713Z,28.97
2018-04-08T22:13:13.079Z,27.10
2018-04-08T22:15:40.491Z,27.63
2018-04-08T22:18:07.857Z,27.50
2018-04-08T22:20:35.213Z,29.00
2018-04-08T22:23:02.641Z,28.30
2018-04-08T22:25:30.018Z,27.40
2018-04-08T22:27:57.373Z,28.33
2018-04-08T22:30:24.794Z,27.17
2018-04-08T22:32:52.185Z,27.17
2018-04-08T22:35:19.550Z,27.20
2018-04-08T22:37:46.970Z,27.53
2018-04-08T22:40:14.329Z,28.53
2018-04-08T22:42:41.681Z,26.77
2018-04-08T22:45:09.069Z,26.10
2018-04-08T22:47:36.424Z,28.13
2018-04-08T22:50:03.781Z,26.83
2018-04-08T22:52:31.177Z,27.13
2018-04-08T22:54:58.553Z,26.70
2018-04-08T22:57:25.913Z,26.87
2018-04-08T22:59:53.290Z,29.33
2018-04-08T23:02:20.662Z,28.20
2018-04-08T23:04:48.061Z,28.10
2018-04-08T23:07:15.434Z,27.10
2018-04-08T23:09:42.872Z,28.30
2018-04-08T23:12:10.269Z,27.20
2018-04-08T23:14:37.628Z,28.60
2018-04-08T23:17:08.878Z,27.70
2018-04-08T23:19:36.296Z,27.33
2018-04-08T23:22:03.630Z,26.90
2018-04-08T23:24:31.053Z,26.27
2018-04-08T23:26:58.424Z,28.30
2018-04-08T23:29:25.795Z,27.20
2018-04-08T23:31:53.202Z,26.53
2018-04-08T23:34:20.565Z,28.43
2018-04-08T23:36:47.914Z,28.30
2018-04-08T23:39:15.313Z,28.80
2018-04-08T23:41:42.664Z,27.90
2018-04-08T23:44:10.018Z,28.70
2018-04-08T23:46:37.494Z,27.07
2018-04-08T23:49:04.858Z,28.13
2018-04-08T23:51:32.254Z,27.37
2018-04-08T23:53:59.638Z,29.17
2018-04-08T23:56:27.045Z,25.80
2018-04-08T23:58:54.401Z,27.60
